sensor_id;sensor_type;location;lat;lon;timestamp;pressure;altitude;pressure_sealevel;temperature;humidity
57050;BME280;42935;50.966;16.992;2024-02-14T00:01:31;102067.27;;;-0.96;100.00
57050;BME280;42935;50.966;16.992;2024-02-14T00:05:28;102074.42;;;-1.01;100.00
57050;BME280;42935;50.966;16.992;2024-02-14T00:08:48;102086.84;;;-0.86;100.00
57050;BME280;42935;50.966;16.992;2024-02-14T00:12:07;102081.80;;;-0.79;100.00
57050;BME280;42935;50.966;16.992;2024-02-14T00:15:33;102088.34;;;-0.98;100.00
57050;BME280;42935;50.966;16.992;2024-02-14T00:18:50;102087.63;;;-0.90;100.00
57050;BME280;42935;50.966;16.992;2024-02-14T00:22:09;102085.58;;;-0.95;100.00
57050;BME280;42935;50.966;16.992;2024-02-14T00:26:07;102089.88;;;-0.95;100.00
57050;BME280;42935;50.966;16.992;2024-02-14T00:29:27;102092.34;;;-0.88;100.00
57050;BME280;42935;50.966;16.992;2024-02-14T00:32:47;102099.25;;;-0.88;100.00
57050;BME280;42935;50.966;16.992;2024-02-14T00:36:03;102083.36;;;-1.10;100.00
57050;BME280;42935;50.966;16.992;2024-02-14T00:39:24;102089.99;;;-1.16;100.00
57050;BME280;42935;50.966;16.992;2024-02-14T00:42:44;102096.43;;;-1.19;100.00
57050;BME280;42935;50.966;16.992;2024-02-14T00:46:04;102097.45;;;-1.21;100.00
57050;BME280;42935;50.966;16.992;2024-02-14T00:49:24;102104.55;;;-1.17;100.00
57050;BME280;42935;50.966;16.992;2024-02-14T00:52:48;102074.28;;;-1.45;100.00
57050;BME280;42935;50.966;16.992;2024-02-14T00:56:07;102109.83;;;-1.33;100.00
57050;BME280;42935;50.966;16.992;2024-02-14T00:59:25;102111.72;;;-1.28;100.00
57050;BME280;42935;50.966;16.992;2024-02-14T01:02:52;102110.66;;;-1.31;100.00
57050;BME280;42935;50.966;16.992;2024-02-14T01:06:12;102089.16;;;-1.56;100.00
57050;BME280;42935;50.966;16.992;2024-02-14T01:09:39;102110.76;;;-1.40;100.00
57050;BME280;42935;50.966;16.992;2024-02-14T01:13:00;102092.10;;;-1.48;100.00
57050;BME280;42935;50.966;16.992;2024-02-14T01:16:21;102099.25;;;-1.51;100.00
57050;BME280;42935;50.966;16.992;2024-02-14T01:19:52;102099.90;;;-1.66;100.00
57050;BME280;42935;50.966;16.992;2024-02-14T01:23:12;102103.74;;;-1.88;100.00
57050;BME280;42935;50.966;16.992;2024-02-14T01:26:32;102117.68;;;-1.84;100.00
57050;BME280;42935;50.966;16.992;2024-02-14T01:29:57;102096.97;;;-2.00;100.00
57050;BME280;42935;50.966;16.992;2024-02-14T01:33:47;102110.95;;;-1.73;100.00
57050;BME280;42935;50.966;16.992;2024-02-14T01:37:11;102045.41;;;-2.19;100.00
57050;BME280;42935;50.966;16.992;2024-02-14T01:40:30;102110.27;;;-1.79;100.00
57050;BME280;42935;50.966;16.992;2024-02-14T01:43:51;102095.77;;;-1.73;100.00
57050;BME280;42935;50.966;16.992;2024-02-14T01:47:12;102078.34;;;-1.78;100.00
57050;BME280;42935;50.966;16.992;2024-02-14T01:50:37;102111.60;;;-1.75;100.00
57050;BME280;42935;50.966;16.992;2024-02-14T01:54:06;102090.95;;;-1.74;100.00
57050;BME280;42935;50.966;16.992;2024-02-14T01:57:33;102098.61;;;-1.57;100.00
57050;BME280;42935;50.966;16.992;2024-02-14T02:00:56;102083.83;;;-1.68;100.00
57050;BME280;42935;50.966;16.992;2024-02-14T02:04:18;102082.49;;;-1.66;100.00
57050;BME280;42935;50.966;16.992;2024-02-14T02:07:40;102090.18;;;-1.56;100.00
57050;BME280;42935;50.966;16.992;2024-02-14T02:11:04;102085.47;;;-1.62;100.00
57050;BME280;42935;50.966;16.992;2024-02-14T02:14:25;102093.32;;;-1.50;100.00
57050;BME280;42935;50.966;16.992;2024-02-14T02:17:46;102095.61;;;-1.44;100.00
57050;BME280;42935;50.966;16.992;2024-02-14T02:21:12;102030.73;;;-1.72;100.00
57050;BME280;42935;50.966;16.992;2024-02-14T02:24:47;102078.13;;;-1.41;100.00
57050;BME280;42935;50.966;16.992;2024-02-14T02:28:09;102087.02;;;-1.56;100.00
57050;BME280;42935;50.966;16.992;2024-02-14T02:31:29;102086.61;;;-1.70;100.00
57050;BME280;42935;50.966;16.992;2024-02-14T02:34:49;102064.90;;;-1.76;100.00
57050;BME280;42935;50.966;16.992;2024-02-14T02:38:17;102068.02;;;-2.08;100.00
57050;BME280;42935;50.966;16.992;2024-02-14T02:41:48;102079.75;;;-1.91;100.00
57050;BME280;42935;50.966;16.992;2024-02-14T02:45:06;102090.11;;;-1.82;100.00
57050;BME280;42935;50.966;16.992;2024-02-14T02:48:27;102098.52;;;-2.00;100.00
57050;BME280;42935;50.966;16.992;2024-02-14T02:51:53;102099.78;;;-1.89;100.00
57050;BME280;42935;50.966;16.992;2024-02-14T02:55:14;102097.05;;;-2.03;100.00
57050;BME280;42935;50.966;16.992;2024-02-14T02:58:38;102074.57;;;-2.06;100.00
57050;BME280;42935;50.966;16.992;2024-02-14T03:02:28;102081.23;;;-1.89;100.00
57050;BME280;42935;50.966;16.992;2024-02-14T03:05:48;102098.93;;;-1.89;100.00
57050;BME280;42935;50.966;16.992;2024-02-14T03:09:12;102104.34;;;-1.86;100.00
57050;BME280;42935;50.966;16.992;2024-02-14T03:12:37;102088.17;;;-1.97;100.00
57050;BME280;42935;50.966;16.992;2024-02-14T03:16:03;102094.35;;;-1.98;100.00
57050;BME280;42935;50.966;16.992;2024-02-14T03:19:21;102083.04;;;-2.07;100.00
57050;BME280;42935;50.966;16.992;2024-02-14T03:22:39;102102.00;;;-1.93;100.00
57050;BME280;42935;50.966;16.992;2024-02-14T03:26:03;102100.29;;;-1.96;100.00
57050;BME280;42935;50.966;16.992;2024-02-14T03:29:28;102091.92;;;-1.96;100.00
57050;BME280;42935;50.966;16.992;2024-02-14T03:32:46;102091.42;;;-2.10;100.00
57050;BME280;42935;50.966;16.992;2024-02-14T03:36:06;102065.84;;;-2.37;100.00
57050;BME280;42935;50.966;16.992;2024-02-14T03:39:25;102097.16;;;-2.10;100.00
57050;BME280;42935;50.966;16.992;2024-02-14T03:42:42;102104.85;;;-1.93;100.00
57050;BME280;42935;50.966;16.992;2024-02-14T03:46:11;102107.21;;;-2.06;100.00
57050;BME280;42935;50.966;16.992;2024-02-14T03:49:33;102109.86;;;-1.91;100.00
57050;BME280;42935;50.966;16.992;2024-02-14T03:52:50;102107.31;;;-1.97;100.00
57050;BME280;42935;50.966;16.992;2024-02-14T03:56:09;102106.62;;;-1.97;100.00
57050;BME280;42935;50.966;16.992;2024-02-14T03:59:31;102095.69;;;-1.91;100.00
57050;BME280;42935;50.966;16.992;2024-02-14T04:03:08;102114.60;;;-1.74;100.00
57050;BME280;42935;50.966;16.992;2024-02-14T04:06:28;102111.95;;;-1.70;100.00
57050;BME280;42935;50.966;16.992;2024-02-14T04:09:51;102097.37;;;-1.98;100.00
57050;BME280;42935;50.966;16.992;2024-02-14T04:13:16;102104.25;;;-2.04;100.00
57050;BME280;42935;50.966;16.992;2024-02-14T04:16:39;102116.14;;;-2.03;100.00
57050;BME280;42935;50.966;16.992;2024-02-14T04:20:00;102106.77;;;-1.99;100.00
57050;BME280;42935;50.966;16.992;2024-02-14T04:23:21;102117.28;;;-1.92;100.00
57050;BME280;42935;50.966;16.992;2024-02-14T04:26:44;102104.02;;;-1.92;100.00
57050;BME280;42935;50.966;16.992;2024-02-14T04:30:06;102116.29;;;-1.87;100.00
57050;BME280;42935;50.966;16.992;2024-02-14T04:33:34;102122.23;;;-2.03;100.00
57050;BME280;42935;50.966;16.992;2024-02-14T04:37:01;102115.14;;;-2.29;100.00
57050;BME280;42935;50.966;16.992;2024-02-14T04:40:28;102115.60;;;-2.28;100.00
57050;BME280;42935;50.966;16.992;2024-02-14T04:43:50;102115.45;;;-2.12;100.00
57050;BME280;42935;50.966;16.992;2024-02-14T04:47:13;102119.91;;;-2.26;100.00
57050;BME280;42935;50.966;16.992;2024-02-14T04:50:35;102107.48;;;-2.26;100.00
57050;BME280;42935;50.966;16.992;2024-02-14T04:54:01;102114.60;;;-2.12;100.00
57050;BME280;42935;50.966;16.992;2024-02-14T04:57:19;102100.23;;;-2.05;100.00
57050;BME280;42935;50.966;16.992;2024-02-14T05:00:44;102113.63;;;-2.11;100.00
57050;BME280;42935;50.966;16.992;2024-02-14T05:04:08;102110.77;;;-2.31;100.00
57050;BME280;42935;50.966;16.992;2024-02-14T05:08:00;102103.51;;;-2.42;100.00
57050;BME280;42935;50.966;16.992;2024-02-14T05:11:22;102106.95;;;-2.27;100.00
57050;BME280;42935;50.966;16.992;2024-02-14T05:14:40;102087.28;;;-2.28;100.00
57050;BME280;42935;50.966;16.992;2024-02-14T05:18:01;102105.57;;;-2.15;100.00
57050;BME280;42935;50.966;16.992;2024-02-14T05:21:20;102089.81;;;-2.28;100.00
57050;BME280;42935;50.966;16.992;2024-02-14T05:24:41;102111.85;;;-2.09;100.00
57050;BME280;42935;50.966;16.992;2024-02-14T05:28:01;102098.70;;;-2.09;100.00
57050;BME280;42935;50.966;16.992;2024-02-14T05:31:20;102087.45;;;-2.09;100.00
57050;BME280;42935;50.966;16.992;2024-02-14T05:35:12;102104.55;;;-2.10;100.00
57050;BME280;42935;50.966;16.992;2024-02-14T05:38:33;102101.06;;;-2.20;100.00
57050;BME280;42935;50.966;16.992;2024-02-14T05:41:55;102091.09;;;-2.30;100.00
57050;BME280;42935;50.966;16.992;2024-02-14T05:45:16;102092.74;;;-2.32;100.00
57050;BME280;42935;50.966;16.992;2024-02-14T05:48:39;102096.83;;;-2.46;100.00
57050;BME280;42935;50.966;16.992;2024-02-14T05:52:05;102099.12;;;-2.54;100.00
57050;BME280;42935;50.966;16.992;2024-02-14T05:55:25;102108.55;;;-2.43;100.00
57050;BME280;42935;50.966;16.992;2024-02-14T05:58:45;102109.94;;;-2.26;100.00
57050;BME280;42935;50.966;16.992;2024-02-14T06:02:12;102106.99;;;-2.38;100.00
57050;BME280;42935;50.966;16.992;2024-02-14T06:05:59;102100.97;;;-2.72;100.00
57050;BME280;42935;50.966;16.992;2024-02-14T06:09:27;102094.71;;;-2.77;100.00
57050;BME280;42935;50.966;16.992;2024-02-14T06:12:46;102083.82;;;-2.78;100.00
57050;BME280;42935;50.966;16.992;2024-02-14T06:16:05;102088.19;;;-2.66;100.00
57050;BME280;42935;50.966;16.992;2024-02-14T06:19:28;102098.59;;;-2.49;100.00
57050;BME280;42935;50.966;16.992;2024-02-14T06:23:18;102108.70;;;-2.23;100.00
57050;BME280;42935;50.966;16.992;2024-02-14T06:26:38;102117.38;;;-2.30;100.00
57050;BME280;42935;50.966;16.992;2024-02-14T06:29:58;102105.28;;;-2.20;100.00
57050;BME280;42935;50.966;16.992;2024-02-14T06:33:24;102101.55;;;-2.25;100.00
57050;BME280;42935;50.966;16.992;2024-02-14T06:36:43;102118.01;;;-2.18;100.00
57050;BME280;42935;50.966;16.992;2024-02-14T06:40:08;102113.41;;;-2.09;100.00
57050;BME280;42935;50.966;16.992;2024-02-14T06:43:28;102116.58;;;-1.97;100.00
57050;BME280;42935;50.966;16.992;2024-02-14T06:46:49;102131.02;;;-1.96;100.00
57050;BME280;42935;50.966;16.992;2024-02-14T06:50:09;102121.56;;;-1.92;100.00
57050;BME280;42935;50.966;16.992;2024-02-14T06:53:27;102085.54;;;-2.25;100.00
57050;BME280;42935;50.966;16.992;2024-02-14T06:57:19;102127.41;;;-1.92;100.00
57050;BME280;42935;50.966;16.992;2024-02-14T07:00:40;102130.10;;;-1.95;100.00
57050;BME280;42935;50.966;16.992;2024-02-14T07:04:01;102138.87;;;-1.60;100.00
57050;BME280;42935;50.966;16.992;2024-02-14T07:07:24;102135.97;;;-1.48;100.00
57050;BME280;42935;50.966;16.992;2024-02-14T07:10:47;102104.14;;;-1.68;100.00
57050;BME280;42935;50.966;16.992;2024-02-14T07:14:08;102116.05;;;-1.61;100.00
57050;BME280;42935;50.966;16.992;2024-02-14T07:17:29;102123.55;;;-1.48;100.00
57050;BME280;42935;50.966;16.992;2024-02-14T07:21:22;102131.30;;;-1.37;100.00
57050;BME280;42935;50.966;16.992;2024-02-14T07:24:43;102126.34;;;-1.20;100.00
57050;BME280;42935;50.966;16.992;2024-02-14T07:28:06;102115.42;;;-1.10;100.00
57050;BME280;42935;50.966;16.992;2024-02-14T07:31:30;102117.07;;;-0.99;100.00
57050;BME280;42935;50.966;16.992;2024-02-14T07:34:54;102102.04;;;-0.97;100.00
57050;BME280;42935;50.966;16.992;2024-02-14T07:38:15;102116.86;;;-0.69;100.00
57050;BME280;42935;50.966;16.992;2024-02-14T07:41:37;102111.45;;;-0.54;100.00
57050;BME280;42935;50.966;16.992;2024-02-14T07:45:28;102069.24;;;-0.69;100.00
57050;BME280;42935;50.966;16.992;2024-02-14T07:48:49;102074.72;;;-0.49;100.00
57050;BME280;42935;50.966;16.992;2024-02-14T07:52:10;102106.62;;;-0.06;100.00
57050;BME280;42935;50.966;16.992;2024-02-14T07:55:31;102090.67;;;-0.12;100.00
57050;BME280;42935;50.966;16.992;2024-02-14T07:59:22;102084.91;;;-0.03;100.00
57050;BME280;42935;50.966;16.992;2024-02-14T08:02:43;102105.97;;;0.28;100.00
57050;BME280;42935;50.966;16.992;2024-02-14T08:06:04;102096.57;;;0.43;100.00
57050;BME280;42935;50.966;16.992;2024-02-14T08:09:25;102097.49;;;0.58;100.00
57050;BME280;42935;50.966;16.992;2024-02-14T08:12:46;102089.16;;;0.69;100.00
57050;BME280;42935;50.966;16.992;2024-02-14T08:16:35;102092.20;;;0.84;100.00
57050;BME280;42935;50.966;16.992;2024-02-14T08:19:57;102093.94;;;1.04;100.00
57050;BME280;42935;50.966;16.992;2024-02-14T08:23:18;102095.53;;;1.22;100.00
57050;BME280;42935;50.966;16.992;2024-02-14T08:26:42;102087.54;;;1.24;100.00
57050;BME280;42935;50.966;16.992;2024-02-14T08:30:01;102082.19;;;1.26;100.00
57050;BME280;42935;50.966;16.992;2024-02-14T08:33:29;102086.95;;;1.48;100.00
57050;BME280;42935;50.966;16.992;2024-02-14T08:36:56;102090.53;;;1.58;100.00
57050;BME280;42935;50.966;16.992;2024-02-14T08:40:15;102091.35;;;1.64;100.00
57050;BME280;42935;50.966;16.992;2024-02-14T08:43:37;102092.13;;;1.69;100.00
57050;BME280;42935;50.966;16.992;2024-02-14T08:46:56;102099.88;;;1.71;100.00
57050;BME280;42935;50.966;16.992;2024-02-14T08:50:15;102086.77;;;1.69;100.00
57050;BME280;42935;50.966;16.992;2024-02-14T08:53:41;102084.63;;;1.74;100.00
57050;BME280;42935;50.966;16.992;2024-02-14T08:57:04;102097.33;;;1.91;100.00
57050;BME280;42935;50.966;16.992;2024-02-14T09:00:31;102082.95;;;1.99;100.00
57050;BME280;42935;50.966;16.992;2024-02-14T09:03:58;102098.94;;;2.12;100.00
57050;BME280;42935;50.966;16.992;2024-02-14T09:07:23;102091.27;;;2.23;100.00
57050;BME280;42935;50.966;16.992;2024-02-14T09:10:44;102087.01;;;2.41;100.00
57050;BME280;42935;50.966;16.992;2024-02-14T09:14:06;102078.20;;;2.47;100.00
57050;BME280;42935;50.966;16.992;2024-02-14T09:17:27;102040.01;;;2.45;100.00
57050;BME280;42935;50.966;16.992;2024-02-14T09:20:45;102079.52;;;2.91;100.00
57050;BME280;42935;50.966;16.992;2024-02-14T09:24:13;102085.64;;;3.01;100.00
57050;BME280;42935;50.966;16.992;2024-02-14T09:27:37;102078.42;;;3.26;100.00
57050;BME280;42935;50.966;16.992;2024-02-14T09:31:37;102077.45;;;3.56;100.00
57050;BME280;42935;50.966;16.992;2024-02-14T09:34:58;102060.20;;;3.85;100.00
57050;BME280;42935;50.966;16.992;2024-02-14T09:38:21;102071.56;;;3.99;100.00
57050;BME280;42935;50.966;16.992;2024-02-14T09:41:46;102076.68;;;4.19;100.00
57050;BME280;42935;50.966;16.992;2024-02-14T09:45:11;102069.16;;;4.40;100.00
57050;BME280;42935;50.966;16.992;2024-02-14T09:48:30;102072.04;;;4.49;100.00
57050;BME280;42935;50.966;16.992;2024-02-14T09:52:24;102075.69;;;4.49;100.00
57050;BME280;42935;50.966;16.992;2024-02-14T09:55:42;102077.00;;;4.93;100.00
57050;BME280;42935;50.966;16.992;2024-02-14T09:59:03;102075.92;;;5.16;100.00
57050;BME280;42935;50.966;16.992;2024-02-14T10:02:25;102065.77;;;5.16;100.00
57050;BME280;42935;50.966;16.992;2024-02-14T10:05:46;102068.72;;;5.30;100.00
57050;BME280;42935;50.966;16.992;2024-02-14T10:09:03;102065.81;;;5.49;100.00
57050;BME280;42935;50.966;16.992;2024-02-14T10:12:30;102046.30;;;5.49;100.00
57050;BME280;42935;50.966;16.992;2024-02-14T10:15:53;102039.03;;;5.58;100.00
57050;BME280;42935;50.966;16.992;2024-02-14T10:19:16;102050.47;;;5.92;100.00
57050;BME280;42935;50.966;16.992;2024-02-14T10:22:37;102035.69;;;5.98;100.00
57050;BME280;42935;50.966;16.992;2024-02-14T10:26:33;102022.45;;;6.57;100.00
57050;BME280;42935;50.966;16.992;2024-02-14T10:29:56;102025.96;;;6.81;100.00
57050;BME280;42935;50.966;16.992;2024-02-14T10:33:18;102016.87;;;6.66;100.00
57050;BME280;42935;50.966;16.992;2024-02-14T10:36:43;102007.06;;;6.85;100.00
57050;BME280;42935;50.966;16.992;2024-02-14T10:40:09;101991.14;;;6.73;100.00
57050;BME280;42935;50.966;16.992;2024-02-14T10:43:31;101998.63;;;6.83;100.00
57050;BME280;42935;50.966;16.992;2024-02-14T10:46:49;101989.66;;;6.89;100.00
57050;BME280;42935;50.966;16.992;2024-02-14T10:50:42;101999.62;;;7.12;100.00
57050;BME280;42935;50.966;16.992;2024-02-14T10:54:06;101985.11;;;7.40;100.00
57050;BME280;42935;50.966;16.992;2024-02-14T10:58:01;101980.71;;;7.48;97.43
57050;BME280;42935;50.966;16.992;2024-02-14T11:01:23;101978.88;;;7.74;97.18
57050;BME280;42935;50.966;16.992;2024-02-14T11:04:46;101974.19;;;8.05;98.22
57050;BME280;42935;50.966;16.992;2024-02-14T11:08:09;101962.56;;;8.05;90.82
57050;BME280;42935;50.966;16.992;2024-02-14T11:11:32;101973.92;;;8.22;86.77
57050;BME280;42935;50.966;16.992;2024-02-14T11:14:57;101964.06;;;8.31;87.62
57050;BME280;42935;50.966;16.992;2024-02-14T11:18:26;101963.18;;;8.32;88.34
57050;BME280;42935;50.966;16.992;2024-02-14T11:21:50;101963.56;;;8.24;86.86
57050;BME280;42935;50.966;16.992;2024-02-14T11:25:44;101952.96;;;8.30;88.03
57050;BME280;42935;50.966;16.992;2024-02-14T11:29:05;101926.48;;;8.17;87.75
57050;BME280;42935;50.966;16.992;2024-02-14T11:32:32;101928.56;;;8.39;86.65
57050;BME280;42935;50.966;16.992;2024-02-14T11:36:23;101932.74;;;8.76;86.17
57050;BME280;42935;50.966;16.992;2024-02-14T11:40:15;101938.42;;;9.15;85.57
57050;BME280;42935;50.966;16.992;2024-02-14T11:43:34;101918.70;;;9.37;82.39
57050;BME280;42935;50.966;16.992;2024-02-14T11:46:57;101875.17;;;8.88;79.93
57050;BME280;42935;50.966;16.992;2024-02-14T11:50:36;101922.54;;;9.06;79.79
57050;BME280;42935;50.966;16.992;2024-02-14T11:54:35;101889.90;;;9.03;83.04
57050;BME280;42935;50.966;16.992;2024-02-14T11:58:07;101877.27;;;8.85;80.23
57050;BME280;42935;50.966;16.992;2024-02-14T12:01:35;101900.04;;;9.07;82.82
57050;BME280;42935;50.966;16.992;2024-02-14T12:05:01;101904.89;;;9.16;83.06
57050;BME280;42935;50.966;16.992;2024-02-14T12:08:25;101870.73;;;8.61;82.23
57050;BME280;42935;50.966;16.992;2024-02-14T12:11:51;101911.58;;;8.84;84.30
57050;BME280;42935;50.966;16.992;2024-02-14T12:15:16;101906.79;;;8.88;83.70
57050;BME280;42935;50.966;16.992;2024-02-14T12:18:39;101849.08;;;8.63;82.67
57050;BME280;42935;50.966;16.992;2024-02-14T12:22:08;101900.11;;;8.87;77.74
57050;BME280;42935;50.966;16.992;2024-02-14T12:25:39;101839.31;;;8.60;78.21
57050;BME280;42935;50.966;16.992;2024-02-14T12:28:57;101892.40;;;9.06;80.02
57050;BME280;42935;50.966;16.992;2024-02-14T12:32:19;101895.01;;;8.97;77.84
57050;BME280;42935;50.966;16.992;2024-02-14T12:35:43;101844.30;;;8.76;78.81
57050;BME280;42935;50.966;16.992;2024-02-14T12:39:07;101851.16;;;8.79;78.77
57050;BME280;42935;50.966;16.992;2024-02-14T12:48:22;101883.68;;;9.24;81.49
57050;BME280;42935;50.966;16.992;2024-02-14T12:52:29;101870.79;;;9.28;81.14
57050;BME280;42935;50.966;16.992;2024-02-14T12:56:21;101878.41;;;9.02;77.59
57050;BME280;42935;50.966;16.992;2024-02-14T12:59:50;101850.33;;;8.82;79.86
57050;BME280;42935;50.966;16.992;2024-02-14T13:04:18;101819.28;;;8.63;81.39
57050;BME280;42935;50.966;16.992;2024-02-14T15:10:10;101844.83;;;9.00;92.98
57050;BME280;42935;50.966;16.992;2024-02-14T15:36:36;101868.27;;;8.67;99.24
57050;BME280;42935;50.966;16.992;2024-02-14T15:40:05;101863.07;;;8.68;99.56
57050;BME280;42935;50.966;16.992;2024-02-14T15:43:27;101864.07;;;8.57;100.00
57050;BME280;42935;50.966;16.992;2024-02-14T15:46:49;101835.34;;;8.28;100.00
57050;BME280;42935;50.966;16.992;2024-02-14T15:50:11;101876.43;;;8.20;100.00
57050;BME280;42935;50.966;16.992;2024-02-14T15:53:30;101870.20;;;8.03;99.63
57050;BME280;42935;50.966;16.992;2024-02-14T15:56:49;101882.13;;;8.07;97.33
57050;BME280;42935;50.966;16.992;2024-02-14T16:00:08;101883.76;;;8.00;98.03
57050;BME280;42935;50.966;16.992;2024-02-14T16:04:01;101891.44;;;7.84;100.00
57050;BME280;42935;50.966;16.992;2024-02-14T16:07:21;101849.47;;;7.47;100.00
57050;BME280;42935;50.966;16.992;2024-02-14T16:10:49;101893.73;;;7.67;100.00
57050;BME280;42935;50.966;16.992;2024-02-14T16:14:15;101885.95;;;7.55;100.00
57050;BME280;42935;50.966;16.992;2024-02-14T16:18:07;101856.35;;;7.33;100.00
57050;BME280;42935;50.966;16.992;2024-02-14T16:21:56;101900.00;;;7.56;100.00
57050;BME280;42935;50.966;16.992;2024-02-14T16:25:23;101848.51;;;7.13;100.00
57050;BME280;42935;50.966;16.992;2024-02-14T16:28:44;101893.58;;;7.35;100.00
57050;BME280;42935;50.966;16.992;2024-02-14T16:32:06;101907.23;;;7.41;100.00
57050;BME280;42935;50.966;16.992;2024-02-14T16:35:53;101908.13;;;7.33;100.00
57050;BME280;42935;50.966;16.992;2024-02-14T16:39:15;101913.02;;;7.35;100.00
57050;BME280;42935;50.966;16.992;2024-02-14T16:42:39;101915.70;;;7.28;100.00
57050;BME280;42935;50.966;16.992;2024-02-14T16:46:04;101902.78;;;7.10;100.00
57050;BME280;42935;50.966;16.992;2024-02-14T16:49:57;101922.33;;;7.20;100.00
57050;BME280;42935;50.966;16.992;2024-02-14T16:53:18;101924.10;;;7.24;100.00
57050;BME280;42935;50.966;16.992;2024-02-14T16:56:40;101916.52;;;7.02;100.00
57050;BME280;42935;50.966;16.992;2024-02-14T17:00:05;101928.17;;;7.04;100.00
57050;BME280;42935;50.966;16.992;2024-02-14T17:03:27;101924.03;;;6.99;100.00
57050;BME280;42935;50.966;16.992;2024-02-14T17:06:55;101934.08;;;7.05;100.00
57050;BME280;42935;50.966;16.992;2024-02-14T17:10:16;101915.70;;;6.96;100.00
57050;BME280;42935;50.966;16.992;2024-02-14T17:13:38;101937.59;;;7.07;100.00
57050;BME280;42935;50.966;16.992;2024-02-14T17:16:59;101940.68;;;6.99;100.00
57050;BME280;42935;50.966;16.992;2024-02-14T17:20:49;101942.45;;;6.95;100.00
57050;BME280;42935;50.966;16.992;2024-02-14T17:24:10;101945.18;;;6.93;100.00
57050;BME280;42935;50.966;16.992;2024-02-14T17:27:43;101901.89;;;6.61;100.00
57050;BME280;42935;50.966;16.992;2024-02-14T17:31:07;101930.02;;;6.79;100.00
57050;BME280;42935;50.966;16.992;2024-02-14T17:34:51;101940.04;;;6.84;100.00
57050;BME280;42935;50.966;16.992;2024-02-14T17:38:12;101955.07;;;6.94;100.00
57050;BME280;42935;50.966;16.992;2024-02-14T17:41:31;101945.35;;;6.85;100.00
57050;BME280;42935;50.966;16.992;2024-02-14T17:44:58;101949.61;;;6.84;100.00
57050;BME280;42935;50.966;16.992;2024-02-14T17:48:20;101946.31;;;6.88;100.00
57050;BME280;42935;50.966;16.992;2024-02-14T17:51:42;101951.62;;;6.97;100.00
57050;BME280;42935;50.966;16.992;2024-02-14T17:55:08;101958.67;;;6.90;100.00
57050;BME280;42935;50.966;16.992;2024-02-14T17:58:34;101964.88;;;7.15;100.00
57050;BME280;42935;50.966;16.992;2024-02-14T18:01:57;101916.44;;;6.78;100.00
57050;BME280;42935;50.966;16.992;2024-02-14T18:05:18;101962.70;;;7.03;100.00
57050;BME280;42935;50.966;16.992;2024-02-14T18:08:40;101970.95;;;7.15;100.00
57050;BME280;42935;50.966;16.992;2024-02-14T18:12:05;101968.15;;;7.07;100.00
57050;BME280;42935;50.966;16.992;2024-02-14T18:15:28;101971.02;;;7.10;100.00
57050;BME280;42935;50.966;16.992;2024-02-14T18:18:54;101962.73;;;7.02;100.00
57050;BME280;42935;50.966;16.992;2024-02-14T18:22:19;101959.34;;;7.10;100.00
57050;BME280;42935;50.966;16.992;2024-02-14T18:25:47;101964.26;;;7.09;100.00
57050;BME280;42935;50.966;16.992;2024-02-14T18:29:19;101963.88;;;7.13;100.00
57050;BME280;42935;50.966;16.992;2024-02-14T18:32:49;101941.24;;;7.05;100.00
57050;BME280;42935;50.966;16.992;2024-02-14T18:36:11;101949.38;;;7.08;100.00
57050;BME280;42935;50.966;16.992;2024-02-14T18:39:38;101967.21;;;7.19;100.00
57050;BME280;42935;50.966;16.992;2024-02-14T18:43:33;101944.94;;;7.24;100.00
57050;BME280;42935;50.966;16.992;2024-02-14T18:47:26;101953.72;;;7.41;100.00
57050;BME280;42935;50.966;16.992;2024-02-14T18:50:47;101956.05;;;7.05;100.00
57050;BME280;42935;50.966;16.992;2024-02-14T18:54:12;101950.68;;;6.82;100.00
57050;BME280;42935;50.966;16.992;2024-02-14T18:57:33;101947.88;;;7.02;100.00
57050;BME280;42935;50.966;16.992;2024-02-14T19:00:54;101947.44;;;7.25;100.00
57050;BME280;42935;50.966;16.992;2024-02-14T19:04:23;101938.81;;;6.83;100.00
57050;BME280;42935;50.966;16.992;2024-02-14T19:07:40;101914.13;;;6.66;100.00
57050;BME280;42935;50.966;16.992;2024-02-14T19:11:04;101901.02;;;6.67;100.00
57050;BME280;42935;50.966;16.992;2024-02-14T19:14:31;101956.12;;;7.08;100.00
57050;BME280;42935;50.966;16.992;2024-02-14T19:17:53;101953.79;;;7.13;100.00
57050;BME280;42935;50.966;16.992;2024-02-14T19:21:17;101950.75;;;7.32;100.00
57050;BME280;42935;50.966;16.992;2024-02-14T19:24:39;101936.72;;;7.11;100.00
57050;BME280;42935;50.966;16.992;2024-02-14T19:28:10;101951.52;;;7.11;100.00
57050;BME280;42935;50.966;16.992;2024-02-14T19:31:37;101941.13;;;7.24;100.00
57050;BME280;42935;50.966;16.992;2024-02-14T19:35:38;101952.91;;;7.19;100.00
57050;BME280;42935;50.966;16.992;2024-02-14T19:39:11;101901.52;;;6.92;100.00
57050;BME280;42935;50.966;16.992;2024-02-14T19:42:55;101952.46;;;7.16;100.00
57050;BME280;42935;50.966;16.992;2024-02-14T19:46:21;101899.54;;;6.53;100.00
57050;BME280;42935;50.966;16.992;2024-02-14T19:49:48;101950.52;;;6.91;100.00
57050;BME280;42935;50.966;16.992;2024-02-14T19:53:37;101916.69;;;6.58;100.00
57050;BME280;42935;50.966;16.992;2024-02-14T19:57:03;101914.42;;;6.23;100.00
57050;BME280;42935;50.966;16.992;2024-02-14T20:00:30;101916.26;;;6.14;100.00
57050;BME280;42935;50.966;16.992;2024-02-14T20:04:09;101955.25;;;6.42;100.00
57050;BME280;42935;50.966;16.992;2024-02-14T20:11:46;101961.12;;;6.52;100.00
57050;BME280;42935;50.966;16.992;2024-02-14T20:15:18;101902.66;;;6.29;100.00
57050;BME280;42935;50.966;16.992;2024-02-14T20:18:51;101917.77;;;6.57;100.00